sensor_id;sensor_type;location;lat;lon;timestamp;pressure;altitude;pressure_sealevel;temperature;humidity
3132;BME280;62090;52.330;9.104;2023-04-29T00:01:53;100496.25;;;14.18;100.00
3132;BME280;62090;52.330;9.104;2023-04-29T00:04:25;100506.53;;;14.21;100.00
3132;BME280;62090;52.330;9.104;2023-04-29T00:06:56;100499.66;;;14.14;100.00
3132;BME280;62090;52.330;9.104;2023-04-29T00:09:25;100506.47;;;14.14;100.00
3132;BME280;62090;52.330;9.104;2023-04-29T00:11:55;100491.03;;;14.00;100.00
3132;BME280;62090;52.330;9.104;2023-04-29T00:14:28;100492.75;;;14.04;100.00
3132;BME280;62090;52.330;9.104;2023-04-29T00:16:57;100503.00;;;14.03;100.00
3132;BME280;62090;52.330;9.104;2023-04-29T00:19:27;100500.41;;;14.01;100.00
3132;BME280;62090;52.330;9.104;2023-04-29T00:21:57;100491.03;;;14.03;100.00
3132;BME280;62090;52.330;9.104;2023-04-29T00:24:27;100497.09;;;14.11;100.00
3132;BME280;62090;52.330;9.104;2023-04-29T00:26:56;100496.16;;;14.00;100.00
3132;BME280;62090;52.330;9.104;2023-04-29T00:29:30;100504.72;;;14.07;100.00
3132;BME280;62090;52.330;9.104;2023-04-29T00:31:59;100515.81;;;14.04;100.00
3132;BME280;62090;52.330;9.104;2023-04-29T00:34:29;100507.28;;;14.07;100.00
3132;BME280;62090;52.330;9.104;2023-04-29T00:36:59;100486.69;;;13.88;100.00
3132;BME280;62090;52.330;9.104;2023-04-29T00:39:30;100486.63;;;13.79;100.00
3132;BME280;62090;52.330;9.104;2023-04-29T00:42:00;100514.88;;;13.93;100.00
3132;BME280;62090;52.330;9.104;2023-04-29T00:44:32;100517.47;;;13.96;100.00
3132;BME280;62090;52.330;9.104;2023-04-29T00:47:02;100519.91;;;13.78;100.00
3132;BME280;62090;52.330;9.104;2023-04-29T00:49:32;100527.66;;;13.87;100.00
3132;BME280;62090;52.330;9.104;2023-04-29T00:52:01;100368.03;;;12.81;100.00
3132;BME280;62090;52.330;9.104;2023-04-29T00:54:34;100473.56;;;13.47;100.00
3132;BME280;62090;52.330;9.104;2023-04-29T00:57:04;100490.72;;;13.58;100.00
3132;BME280;62090;52.330;9.104;2023-04-29T00:59:37;100532.75;;;13.85;100.00
3132;BME280;62090;52.330;9.104;2023-04-29T01:02:07;100535.28;;;13.78;100.00
3132;BME280;62090;52.330;9.104;2023-04-29T01:04:37;100541.25;;;13.81;100.00
3132;BME280;62090;52.330;9.104;2023-04-29T01:07:13;100536.16;;;13.80;100.00
3132;BME280;62090;52.330;9.104;2023-04-29T01:09:53;100542.00;;;13.67;100.00
3132;BME280;62090;52.330;9.104;2023-04-29T01:12:32;100538.66;;;13.75;100.00
3132;BME280;62090;52.330;9.104;2023-04-29T01:15:17;100537.78;;;13.72;100.00
3132;BME280;62090;52.330;9.104;2023-04-29T01:17:55;100544.63;;;13.76;100.00
3132;BME280;62090;52.330;9.104;2023-04-29T01:20:26;100525.66;;;13.54;100.00
3132;BME280;62090;52.330;9.104;2023-04-29T01:22:57;100541.94;;;13.58;100.00
3132;BME280;62090;52.330;9.104;2023-04-29T01:25:30;100565.06;;;13.68;100.00
3132;BME280;62090;52.330;9.104;2023-04-29T01:28:13;100560.75;;;13.66;100.00
3132;BME280;62090;52.330;9.104;2023-04-29T01:30:55;100545.34;;;13.60;100.00
3132;BME280;62090;52.330;9.104;2023-04-29T01:33:31;100564.22;;;13.68;100.00
3132;BME280;62090;52.330;9.104;2023-04-29T01:36:11;100567.59;;;13.65;100.00
3132;BME280;62090;52.330;9.104;2023-04-29T01:38:49;100570.09;;;13.61;100.00
3132;BME280;62090;52.330;9.104;2023-04-29T01:41:30;100577.84;;;13.67;100.00
3132;BME280;62090;52.330;9.104;2023-04-29T01:44:15;100564.06;;;13.54;100.00
3132;BME280;62090;52.330;9.104;2023-04-29T01:46:50;100570.88;;;13.50;100.00
3132;BME280;62090;52.330;9.104;2023-04-29T01:49:25;100563.09;;;13.41;100.00
3132;BME280;62090;52.330;9.104;2023-04-29T01:51:55;100576.00;;;13.53;100.00
3132;BME280;62090;52.330;9.104;2023-04-29T01:54:25;100563.97;;;13.42;100.00
3132;BME280;62090;52.330;9.104;2023-04-29T01:56:58;100575.16;;;13.54;100.00
3132;BME280;62090;52.330;9.104;2023-04-29T01:59:54;100557.03;;;13.33;100.00
3132;BME280;62090;52.330;9.104;2023-04-29T02:02:38;100595.53;;;13.42;100.00
3132;BME280;62090;52.330;9.104;2023-04-29T02:05:22;100580.88;;;13.26;100.00
3132;BME280;62090;52.330;9.104;2023-04-29T02:07:55;100594.63;;;13.36;100.00
3132;BME280;62090;52.330;9.104;2023-04-29T02:10:25;100602.38;;;13.42;100.00
3132;BME280;62090;52.330;9.104;2023-04-29T02:13:09;100608.34;;;13.42;100.00
3132;BME280;62090;52.330;9.104;2023-04-29T02:15:40;100617.63;;;13.34;100.00
3132;BME280;62090;52.330;9.104;2023-04-29T02:18:10;100613.31;;;13.30;100.00
3132;BME280;62090;52.330;9.104;2023-04-29T02:20:40;100598.72;;;13.20;100.00
3132;BME280;62090;52.330;9.104;2023-04-29T02:23:10;100614.91;;;13.22;100.00
3132;BME280;62090;52.330;9.104;2023-04-29T02:25:40;100610.59;;;13.15;100.00
3132;BME280;62090;52.330;9.104;2023-04-29T02:28:12;100637.00;;;13.14;100.00
3132;BME280;62090;52.330;9.104;2023-04-29T02:30:43;100633.44;;;13.06;100.00
3132;BME280;62090;52.330;9.104;2023-04-29T02:33:13;100642.88;;;13.08;100.00
3132;BME280;62090;52.330;9.104;2023-04-29T02:35:44;100650.53;;;13.07;100.00
3132;BME280;62090;52.330;9.104;2023-04-29T02:38:15;100646.94;;;12.93;100.00
3132;BME280;62090;52.330;9.104;2023-04-29T02:40:45;100655.56;;;13.01;100.00
3132;BME280;62090;52.330;9.104;2023-04-29T02:43:18;100655.53;;;12.98;100.00
3132;BME280;62090;52.330;9.104;2023-04-29T02:45:48;100655.41;;;12.89;100.00
3132;BME280;62090;52.330;9.104;2023-04-29T02:48:18;100663.94;;;12.91;100.00
3132;BME280;62090;52.330;9.104;2023-04-29T02:50:48;100658.84;;;12.91;100.00
3132;BME280;62090;52.330;9.104;2023-04-29T02:53:18;100651.25;;;12.95;100.00
3132;BME280;62090;52.330;9.104;2023-04-29T02:55:49;100661.47;;;12.95;100.00
3132;BME280;62090;52.330;9.104;2023-04-29T02:58:21;100652.78;;;12.83;100.00
3132;BME280;62090;52.330;9.104;2023-04-29T03:00:51;100670.88;;;12.98;100.00
3132;BME280;62090;52.330;9.104;2023-04-29T03:03:21;100670.69;;;12.86;100.00
3132;BME280;62090;52.330;9.104;2023-04-29T03:05:51;100677.31;;;12.72;100.00
3132;BME280;62090;52.330;9.104;2023-04-29T03:08:21;100680.81;;;12.77;100.00
3132;BME280;62090;52.330;9.104;2023-04-29T03:10:51;100679.09;;;12.74;100.00
3132;BME280;62090;52.330;9.104;2023-04-29T03:13:24;100678.22;;;12.75;100.00
3132;BME280;62090;52.330;9.104;2023-04-29T03:15:54;100666.03;;;12.59;100.00
3132;BME280;62090;52.330;9.104;2023-04-29T03:18:24;100685.81;;;12.70;100.00
3132;BME280;62090;52.330;9.104;2023-04-29T03:20:54;100661.78;;;12.58;100.00
3132;BME280;62090;52.330;9.104;2023-04-29T03:23:24;100672.91;;;12.61;100.00
3132;BME280;62090;52.330;9.104;2023-04-29T03:25:54;100693.41;;;12.63;100.00
3132;BME280;62090;52.330;9.104;2023-04-29T03:28:27;100681.31;;;12.54;100.00
3132;BME280;62090;52.330;9.104;2023-04-29T03:30:57;100701.84;;;12.57;100.00
3132;BME280;62090;52.330;9.104;2023-04-29T03:33:27;100683.75;;;12.45;100.00
3132;BME280;62090;52.330;9.104;2023-04-29T03:35:57;100706.78;;;12.47;100.00
3132;BME280;62090;52.330;9.104;2023-04-29T03:38:34;100703.31;;;12.45;100.00
3132;BME280;62090;52.330;9.104;2023-04-29T03:41:04;100701.59;;;12.42;100.00
3132;BME280;62090;52.330;9.104;2023-04-29T03:43:36;100692.88;;;12.31;100.00
3132;BME280;62090;52.330;9.104;2023-04-29T03:46:06;100698.81;;;12.30;100.00
3132;BME280;62090;52.330;9.104;2023-04-29T03:48:36;100709.16;;;12.36;100.00
3132;BME280;62090;52.330;9.104;2023-04-29T03:51:09;100700.47;;;12.28;100.00
3132;BME280;62090;52.330;9.104;2023-04-29T03:53:40;100695.19;;;12.16;100.00
3132;BME280;62090;52.330;9.104;2023-04-29T03:56:10;100695.34;;;12.25;100.00
3132;BME280;62090;52.330;9.104;2023-04-29T03:58:45;100724.69;;;12.50;100.00
3132;BME280;62090;52.330;9.104;2023-04-29T04:01:15;100703.22;;;12.39;100.00
3132;BME280;62090;52.330;9.104;2023-04-29T04:03:45;100719.56;;;12.47;100.00
3132;BME280;62090;52.330;9.104;2023-04-29T04:06:15;100724.53;;;12.39;100.00
3132;BME280;62090;52.330;9.104;2023-04-29T04:08:46;100742.44;;;12.41;100.00
3132;BME280;62090;52.330;9.104;2023-04-29T04:11:19;100740.50;;;12.26;100.00
3132;BME280;62090;52.330;9.104;2023-04-29T04:13:57;100755.81;;;12.27;100.00
3132;BME280;62090;52.330;9.104;2023-04-29T04:16:28;100750.53;;;12.15;100.00
3132;BME280;62090;52.330;9.104;2023-04-29T04:18:58;100714.34;;;11.93;100.00
3132;BME280;62090;52.330;9.104;2023-04-29T04:21:30;100731.59;;;12.04;100.00
3132;BME280;62090;52.330;9.104;2023-04-29T04:24:05;100762.59;;;12.24;100.00
3132;BME280;62090;52.330;9.104;2023-04-29T04:26:36;100768.59;;;12.27;100.00
3132;BME280;62090;52.330;9.104;2023-04-29T04:29:09;100748.09;;;12.23;100.00
3132;BME280;62090;52.330;9.104;2023-04-29T04:32:08;100774.72;;;12.36;100.00
3132;BME280;62090;52.330;9.104;2023-04-29T04:34:38;100781.56;;;12.38;100.00
3132;BME280;62090;52.330;9.104;2023-04-29T04:37:09;100760.06;;;12.25;100.00
3132;BME280;62090;52.330;9.104;2023-04-29T04:39:40;100780.69;;;12.36;100.00
3132;BME280;62090;52.330;9.104;2023-04-29T04:42:12;100711.81;;;11.96;100.00
3132;BME280;62090;52.330;9.104;2023-04-29T04:44:47;100795.25;;;12.40;100.00
3132;BME280;62090;52.330;9.104;2023-04-29T04:47:30;100782.34;;;12.34;100.00
3132;BME280;62090;52.330;9.104;2023-04-29T04:50:06;100798.59;;;12.38;100.00
3132;BME280;62090;52.330;9.104;2023-04-29T04:52:36;100784.69;;;12.20;100.00
3132;BME280;62090;52.330;9.104;2023-04-29T04:55:25;100776.81;;;12.10;100.00
3132;BME280;62090;52.330;9.104;2023-04-29T04:57:55;100811.13;;;12.24;100.00
3132;BME280;62090;52.330;9.104;2023-04-29T05:00:28;100819.53;;;12.18;100.00
3132;BME280;62090;52.330;9.104;2023-04-29T05:02:58;100806.44;;;12.02;100.00
3132;BME280;62090;52.330;9.104;2023-04-29T05:05:28;100819.34;;;12.08;100.00
3132;BME280;62090;52.330;9.104;2023-04-29T05:07:58;100806.41;;;11.99;100.00
3132;BME280;62090;52.330;9.104;2023-04-29T05:10:38;100820.25;;;12.10;100.00
3132;BME280;62090;52.330;9.104;2023-04-29T05:13:11;100821.97;;;12.12;100.00
3132;BME280;62090;52.330;9.104;2023-04-29T05:15:44;100813.94;;;11.93;100.00
3132;BME280;62090;52.330;9.104;2023-04-29T05:18:19;100837.09;;;12.02;100.00
3132;BME280;62090;52.330;9.104;2023-04-29T05:20:50;100833.63;;;11.98;100.00
3132;BME280;62090;52.330;9.104;2023-04-29T05:23:20;100823.13;;;11.84;100.00
3132;BME280;62090;52.330;9.104;2023-04-29T05:25:50;100841.22;;;11.95;100.00
3132;BME280;62090;52.330;9.104;2023-04-29T05:28:20;100829.38;;;11.99;100.00
3132;BME280;62090;52.330;9.104;2023-04-29T05:30:57;100842.44;;;12.14;100.00
3132;BME280;62090;52.330;9.104;2023-04-29T05:33:27;100849.38;;;12.19;100.00
3132;BME280;62090;52.330;9.104;2023-04-29T05:35:56;100855.38;;;12.23;100.00
3132;BME280;62090;52.330;9.104;2023-04-29T05:38:26;100845.00;;;12.14;100.00
3132;BME280;62090;52.330;9.104;2023-04-29T05:41:02;100857.81;;;12.17;100.00
3132;BME280;62090;52.330;9.104;2023-04-29T05:43:42;100834.63;;;12.05;100.00
3132;BME280;62090;52.330;9.104;2023-04-29T05:46:16;100864.53;;;12.10;100.00
3132;BME280;62090;52.330;9.104;2023-04-29T05:48:48;100871.31;;;12.10;100.00
3132;BME280;62090;52.330;9.104;2023-04-29T05:51:18;100878.13;;;12.11;100.00
3132;BME280;62090;52.330;9.104;2023-04-29T05:53:48;100864.19;;;11.94;100.00
3132;BME280;62090;52.330;9.104;2023-04-29T05:56:18;100873.53;;;11.93;100.00
3132;BME280;62090;52.330;9.104;2023-04-29T05:58:48;100887.16;;;11.94;100.00
3132;BME280;62090;52.330;9.104;2023-04-29T06:01:20;100897.28;;;11.89;100.00
3132;BME280;62090;52.330;9.104;2023-04-29T06:03:50;100876.31;;;11.66;100.00
3132;BME280;62090;52.330;9.104;2023-04-29T06:06:37;100902.63;;;11.64;100.00
3132;BME280;62090;52.330;9.104;2023-04-29T06:09:17;100900.13;;;11.65;100.00
3132;BME280;62090;52.330;9.104;2023-04-29T06:11:55;100911.41;;;11.75;100.00
3132;BME280;62090;52.330;9.104;2023-04-29T06:14:25;100900.00;;;11.61;100.00
3132;BME280;62090;52.330;9.104;2023-04-29T06:16:57;100920.63;;;11.68;100.00
3132;BME280;62090;52.330;9.104;2023-04-29T06:19:28;100931.59;;;11.66;100.00
3132;BME280;62090;52.330;9.104;2023-04-29T06:21:59;100935.94;;;11.68;100.00
3132;BME280;62090;52.330;9.104;2023-04-29T06:24:30;100935.09;;;11.69;100.00
3132;BME280;62090;52.330;9.104;2023-04-29T06:27:00;100936.13;;;11.76;100.00
3132;BME280;62090;52.330;9.104;2023-04-29T06:29:30;100919.53;;;11.59;100.00
3132;BME280;62090;52.330;9.104;2023-04-29T06:32:03;100952.06;;;11.67;100.00
3132;BME280;62090;52.330;9.104;2023-04-29T06:34:33;100951.00;;;11.59;100.00
3132;BME280;62090;52.330;9.104;2023-04-29T06:37:25;100958.91;;;11.68;100.00
3132;BME280;62090;52.330;9.104;2023-04-29T06:40:24;100952.66;;;11.56;100.00
3132;BME280;62090;52.330;9.104;2023-04-29T06:43:04;100931.25;;;11.51;100.00
3132;BME280;62090;52.330;9.104;2023-04-29T06:45:54;100955.44;;;11.66;100.00
3132;BME280;62090;52.330;9.104;2023-04-29T06:48:34;100956.59;;;11.77;100.00
3132;BME280;62090;52.330;9.104;2023-04-29T06:51:03;100977.16;;;11.83;100.00
3132;BME280;62090;52.330;9.104;2023-04-29T06:53:36;100983.25;;;11.89;100.00
3132;BME280;62090;52.330;9.104;2023-04-29T06:56:06;100930.53;;;11.56;100.00
3132;BME280;62090;52.330;9.104;2023-04-29T06:58:36;100999.44;;;11.89;100.00
3132;BME280;62090;52.330;9.104;2023-04-29T07:01:06;100980.69;;;11.89;100.00
3132;BME280;62090;52.330;9.104;2023-04-29T07:03:39;101005.06;;;12.13;100.00
3132;BME280;62090;52.330;9.104;2023-04-29T07:06:10;101016.94;;;12.10;100.00
3132;BME280;62090;52.330;9.104;2023-04-29T07:08:40;100977.31;;;11.90;100.00
3132;BME280;62090;52.330;9.104;2023-04-29T07:11:10;101016.97;;;12.13;100.00
3132;BME280;62090;52.330;9.104;2023-04-29T07:13:40;100981.56;;;11.91;100.00
3132;BME280;62090;52.330;9.104;2023-04-29T07:16:14;101006.75;;;12.13;100.00
3132;BME280;62090;52.330;9.104;2023-04-29T07:18:48;101029.22;;;12.26;100.00
3132;BME280;62090;52.330;9.104;2023-04-29T07:21:18;101029.00;;;12.17;100.00
3132;BME280;62090;52.330;9.104;2023-04-29T07:23:48;101031.09;;;12.35;100.00
3132;BME280;62090;52.330;9.104;2023-04-29T07:26:18;101039.78;;;12.41;100.00
3132;BME280;62090;52.330;9.104;2023-04-29T07:28:48;101033.47;;;12.27;100.00
3132;BME280;62090;52.330;9.104;2023-04-29T07:31:18;101026.38;;;12.14;100.00
3132;BME280;62090;52.330;9.104;2023-04-29T07:33:51;101044.75;;;12.35;100.00
3132;BME280;62090;52.330;9.104;2023-04-29T07:36:21;101041.22;;;12.30;100.00
3132;BME280;62090;52.330;9.104;2023-04-29T07:38:50;101043.56;;;13.00;98.51
3132;BME280;62090;52.330;9.104;2023-04-29T07:41:20;101055.19;;;12.85;99.50
3132;BME280;62090;52.330;9.104;2023-04-29T07:43:50;101067.16;;;12.87;98.33
3132;BME280;62090;52.330;9.104;2023-04-29T07:46:20;101055.91;;;12.81;99.27
3132;BME280;62090;52.330;9.104;2023-04-29T07:48:53;101037.41;;;12.92;99.77
3132;BME280;62090;52.330;9.104;2023-04-29T07:51:25;101077.22;;;13.20;98.08
3132;BME280;62090;52.330;9.104;2023-04-29T07:53:54;101071.88;;;13.09;97.34
3132;BME280;62090;52.330;9.104;2023-04-29T07:56:24;101082.25;;;13.17;96.90
3132;BME280;62090;52.330;9.104;2023-04-29T07:58:54;101093.59;;;13.30;97.58
3132;BME280;62090;52.330;9.104;2023-04-29T08:01:24;101053.78;;;13.02;96.63
3132;BME280;62090;52.330;9.104;2023-04-29T08:03:56;101102.69;;;13.14;95.45
3132;BME280;62090;52.330;9.104;2023-04-29T08:06:27;101107.81;;;13.14;96.52
3132;BME280;62090;52.330;9.104;2023-04-29T08:08:57;101099.97;;;13.08;96.56
3132;BME280;62090;52.330;9.104;2023-04-29T08:11:28;101105.28;;;13.16;95.66
3132;BME280;62090;52.330;9.104;2023-04-29T08:13:58;101102.47;;;13.05;96.05
3132;BME280;62090;52.330;9.104;2023-04-29T08:16:28;101112.97;;;13.16;97.21
3132;BME280;62090;52.330;9.104;2023-04-29T08:19:01;101120.19;;;13.36;96.34
3132;BME280;62090;52.330;9.104;2023-04-29T08:21:31;101086.84;;;13.32;96.09
3132;BME280;62090;52.330;9.104;2023-04-29T08:24:01;101095.63;;;13.46;94.74
3132;BME280;62090;52.330;9.104;2023-04-29T08:26:31;101074.00;;;13.30;93.98
3132;BME280;62090;52.330;9.104;2023-04-29T08:29:01;101106.59;;;13.40;94.19
3132;BME280;62090;52.330;9.104;2023-04-29T08:31:31;101122.47;;;13.68;94.25
3132;BME280;62090;52.330;9.104;2023-04-29T08:34:03;101107.09;;;13.68;94.01
3132;BME280;62090;52.330;9.104;2023-04-29T08:36:33;101138.25;;;13.90;93.78
3132;BME280;62090;52.330;9.104;2023-04-29T08:39:04;101127.94;;;13.87;92.83
3132;BME280;62090;52.330;9.104;2023-04-29T08:41:35;101124.41;;;13.81;92.51
3132;BME280;62090;52.330;9.104;2023-04-29T08:44:05;101147.59;;;13.88;92.37
3132;BME280;62090;52.330;9.104;2023-04-29T08:46:35;101145.22;;;13.99;92.90
3132;BME280;62090;52.330;9.104;2023-04-29T08:49:08;101152.19;;;14.06;90.91
3132;BME280;62090;52.330;9.104;2023-04-29T08:51:38;101134.97;;;13.99;90.96
3132;BME280;62090;52.330;9.104;2023-04-29T08:54:09;101146.22;;;14.09;89.93
3132;BME280;62090;52.330;9.104;2023-04-29T08:56:44;101167.81;;;14.21;88.51
3132;BME280;62090;52.330;9.104;2023-04-29T08:59:14;101161.16;;;14.32;89.12
3132;BME280;62090;52.330;9.104;2023-04-29T09:01:47;101153.34;;;14.25;89.01
3132;BME280;62090;52.330;9.104;2023-04-29T09:04:29;101141.16;;;14.10;87.54
3132;BME280;62090;52.330;9.104;2023-04-29T09:07:06;101170.19;;;14.12;86.23
3132;BME280;62090;52.330;9.104;2023-04-29T09:09:38;101165.75;;;14.02;86.90
3132;BME280;62090;52.330;9.104;2023-04-29T09:12:08;101155.69;;;14.11;87.07
3132;BME280;62090;52.330;9.104;2023-04-29T09:14:38;101170.56;;;14.32;86.05
3132;BME280;62090;52.330;9.104;2023-04-29T09:17:08;101167.63;;;14.12;84.94
3132;BME280;62090;52.330;9.104;2023-04-29T09:19:40;101153.13;;;14.13;86.36
3132;BME280;62090;52.330;9.104;2023-04-29T09:22:10;101172.69;;;14.08;86.22
3132;BME280;62090;52.330;9.104;2023-04-29T09:24:40;101171.34;;;13.78;86.08
3132;BME280;62090;52.330;9.104;2023-04-29T09:27:25;101181.84;;;13.93;86.85
3132;BME280;62090;52.330;9.104;2023-04-29T09:29:59;101189.88;;;14.13;88.55
3132;BME280;62090;52.330;9.104;2023-04-29T09:32:29;101190.34;;;14.38;87.42
3132;BME280;62090;52.330;9.104;2023-04-29T09:35:20;101194.34;;;14.25;83.32
3132;BME280;62090;52.330;9.104;2023-04-29T09:37:51;101190.88;;;14.23;83.46
3132;BME280;62090;52.330;9.104;2023-04-29T09:40:29;101192.44;;;14.13;84.59
3132;BME280;62090;52.330;9.104;2023-04-29T09:43:13;101163.81;;;13.87;85.64
3132;BME280;62090;52.330;9.104;2023-04-29T09:45:45;101201.47;;;13.93;85.32
3132;BME280;62090;52.330;9.104;2023-04-29T09:48:16;101202.19;;;13.84;85.17
3132;BME280;62090;52.330;9.104;2023-04-29T09:51:00;101200.66;;;13.94;85.81
3132;BME280;62090;52.330;9.104;2023-04-29T09:53:30;101189.38;;;13.86;86.68
3132;BME280;62090;52.330;9.104;2023-04-29T09:56:04;101174.94;;;13.89;85.33
3132;BME280;62090;52.330;9.104;2023-04-29T09:58:35;101197.69;;;14.19;84.18
3132;BME280;62090;52.330;9.104;2023-04-29T10:01:06;101184.06;;;14.23;84.83
3132;BME280;62090;52.330;9.104;2023-04-29T10:03:40;101193.06;;;14.00;82.35
3132;BME280;62090;52.330;9.104;2023-04-29T10:06:15;101207.03;;;14.17;81.45
3132;BME280;62090;52.330;9.104;2023-04-29T10:08:46;101208.97;;;14.30;82.14
3132;BME280;62090;52.330;9.104;2023-04-29T10:11:16;101148.06;;;14.17;82.01
3132;BME280;62090;52.330;9.104;2023-04-29T10:13:47;101208.13;;;14.84;81.96
3132;BME280;62090;52.330;9.104;2023-04-29T10:16:26;101210.66;;;14.79;79.72
3132;BME280;62090;52.330;9.104;2023-04-29T10:18:59;101187.72;;;14.90;78.37
3132;BME280;62090;52.330;9.104;2023-04-29T10:21:35;101201.81;;;15.21;76.99
3132;BME280;62090;52.330;9.104;2023-04-29T10:24:05;101216.63;;;15.45;75.81
3132;BME280;62090;52.330;9.104;2023-04-29T10:26:38;101223.25;;;15.26;74.73
3132;BME280;62090;52.330;9.104;2023-04-29T10:29:08;101207.63;;;15.09;76.21
3132;BME280;62090;52.330;9.104;2023-04-29T10:31:40;101225.72;;;15.17;75.38
3132;BME280;62090;52.330;9.104;2023-04-29T10:34:12;101212.81;;;15.14;74.64
3132;BME280;62090;52.330;9.104;2023-04-29T10:36:45;101219.22;;;15.45;75.75
3132;BME280;62090;52.330;9.104;2023-04-29T10:39:25;101213.38;;;15.55;74.28
3132;BME280;62090;52.330;9.104;2023-04-29T10:41:56;101206.63;;;15.63;73.70
3132;BME280;62090;52.330;9.104;2023-04-29T10:44:26;101219.50;;;15.66;74.19
3132;BME280;62090;52.330;9.104;2023-04-29T10:47:18;101204.13;;;15.71;72.81
3132;BME280;62090;52.330;9.104;2023-04-29T10:50:03;101205.03;;;15.76;70.90
3132;BME280;62090;52.330;9.104;2023-04-29T10:52:53;101215.09;;;15.54;71.63
3132;BME280;62090;52.330;9.104;2023-04-29T10:55:24;101221.22;;;15.02;71.16
3132;BME280;62090;52.330;9.104;2023-04-29T10:57:53;101213.16;;;14.76;71.91
3132;BME280;62090;52.330;9.104;2023-04-29T11:00:26;101217.56;;;14.87;73.55
3132;BME280;62090;52.330;9.104;2023-04-29T11:02:57;101175.31;;;14.62;73.30
3132;BME280;62090;52.330;9.104;2023-04-29T11:05:32;101225.34;;;14.91;72.22
3132;BME280;62090;52.330;9.104;2023-04-29T11:08:12;101213.47;;;14.99;71.36
3132;BME280;62090;52.330;9.104;2023-04-29T11:10:51;101225.66;;;15.14;71.83
3132;BME280;62090;52.330;9.104;2023-04-29T11:13:23;101219.72;;;15.18;71.57
3132;BME280;62090;52.330;9.104;2023-04-29T11:16:03;101218.06;;;15.21;70.93
3132;BME280;62090;52.330;9.104;2023-04-29T11:18:33;101230.03;;;15.21;71.88
3132;BME280;62090;52.330;9.104;2023-04-29T11:21:13;101219.81;;;15.23;71.51
3132;BME280;62090;52.330;9.104;2023-04-29T11:23:46;101237.06;;;15.34;71.77
3132;BME280;62090;52.330;9.104;2023-04-29T11:26:18;101213.63;;;15.10;70.78
3132;BME280;62090;52.330;9.104;2023-04-29T11:28:50;101224.00;;;15.17;70.54
3132;BME280;62090;52.330;9.104;2023-04-29T11:31:20;101236.25;;;15.37;71.42
3132;BME280;62090;52.330;9.104;2023-04-29T11:33:52;101229.91;;;15.10;70.52
3132;BME280;62090;52.330;9.104;2023-04-29T11:36:22;101243.63;;;15.14;70.27
3132;BME280;62090;52.330;9.104;2023-04-29T11:38:55;101246.25;;;15.17;69.06
3132;BME280;62090;52.330;9.104;2023-04-29T11:41:25;101211.88;;;15.07;69.35
3132;BME280;62090;52.330;9.104;2023-04-29T11:43:56;101224.72;;;15.07;69.55
3132;BME280;62090;52.330;9.104;2023-04-29T11:46:29;101245.69;;;15.38;69.19
3132;BME280;62090;52.330;9.104;2023-04-29T11:49:00;101175.22;;;15.17;70.03
3132;BME280;62090;52.330;9.104;2023-04-29T11:51:30;101234.13;;;15.72;67.81
3132;BME280;62090;52.330;9.104;2023-04-29T11:54:03;101241.94;;;15.79;67.77
3132;BME280;62090;52.330;9.104;2023-04-29T11:56:36;101230.75;;;15.74;67.37
3132;BME280;62090;52.330;9.104;2023-04-29T11:59:06;101253.25;;;15.98;68.40
3132;BME280;62090;52.330;9.104;2023-04-29T12:01:36;101230.91;;;15.89;66.68
3132;BME280;62090;52.330;9.104;2023-04-29T12:04:06;101233.53;;;15.95;65.43
3132;BME280;62090;52.330;9.104;2023-04-29T12:06:36;101252.59;;;16.19;65.93
3132;BME280;62090;52.330;9.104;2023-04-29T12:09:10;101242.31;;;16.17;65.35
3132;BME280;62090;52.330;9.104;2023-04-29T12:11:41;101251.72;;;16.18;64.23
3132;BME280;62090;52.330;9.104;2023-04-29T12:14:13;101220.50;;;16.72;62.96
3132;BME280;62090;52.330;9.104;2023-04-29T12:16:43;101246.09;;;16.57;64.10
3132;BME280;62090;52.330;9.104;2023-04-29T12:19:13;101251.22;;;16.54;64.17
3132;BME280;62090;52.330;9.104;2023-04-29T12:21:49;101253.78;;;16.50;64.00
3132;BME280;62090;52.330;9.104;2023-04-29T12:24:22;101256.31;;;16.48;65.42
3132;BME280;62090;52.330;9.104;2023-04-29T12:26:54;101254.56;;;16.44;64.68
3132;BME280;62090;52.330;9.104;2023-04-29T12:29:25;101238.75;;;16.01;64.84
3132;BME280;62090;52.330;9.104;2023-04-29T12:31:55;101252.38;;;15.97;64.62
3132;BME280;62090;52.330;9.104;2023-04-29T12:34:27;101254.09;;;15.95;65.08
3132;BME280;62090;52.330;9.104;2023-04-29T12:36:58;101252.22;;;15.82;64.56
3132;BME280;62090;52.330;9.104;2023-04-29T12:39:31;101261.66;;;15.83;65.19
3132;BME280;62090;52.330;9.104;2023-04-29T12:42:01;101266.91;;;15.91;65.98
3132;BME280;62090;52.330;9.104;2023-04-29T12:44:34;101253.09;;;15.83;65.59
3132;BME280;62090;52.330;9.104;2023-04-29T12:47:07;101264.25;;;15.83;64.92
3132;BME280;62090;52.330;9.104;2023-04-29T12:49:41;101260.66;;;15.69;65.69
3132;BME280;62090;52.330;9.104;2023-04-29T12:52:11;101265.66;;;15.60;65.52
3132;BME280;62090;52.330;9.104;2023-04-29T12:54:43;101264.97;;;15.70;65.24
3132;BME280;62090;52.330;9.104;2023-04-29T12:57:13;101248.69;;;15.73;65.74
3132;BME280;62090;52.330;9.104;2023-04-29T12:59:43;101264.44;;;16.01;65.37
3132;BME280;62090;52.330;9.104;2023-04-29T13:02:13;101274.97;;;16.23;65.05
3132;BME280;62090;52.330;9.104;2023-04-29T13:04:43;101272.50;;;16.36;64.56
3132;BME280;62090;52.330;9.104;2023-04-29T13:07:13;101277.53;;;16.23;63.63
3132;BME280;62090;52.330;9.104;2023-04-29T13:09:46;101275.63;;;16.08;63.66
3132;BME280;62090;52.330;9.104;2023-04-29T13:12:16;101277.38;;;16.11;64.39
3132;BME280;62090;52.330;9.104;2023-04-29T13:14:46;101283.41;;;16.11;63.79
3132;BME280;62090;52.330;9.104;2023-04-29T13:17:17;101277.31;;;16.04;64.43
3132;BME280;62090;52.330;9.104;2023-04-29T13:19:47;101279.81;;;15.98;63.61
3132;BME280;62090;52.330;9.104;2023-04-29T13:22:18;101267.94;;;16.07;65.37
3132;BME280;62090;52.330;9.104;2023-04-29T13:24:50;101279.16;;;16.16;63.46